sensor_id;sensor_type;location;lat;lon;timestamp;P1;durP1;ratioP1;P2;durP2;ratioP2
20093;SDS011;10206;48.012;10.030;2023-05-15T00:01:19;7.97;;;6.77;;
20093;SDS011;10206;48.012;10.030;2023-05-15T00:03:46;7.00;;;6.20;;
20093;SDS011;10206;48.012;10.030;2023-05-15T00:06:12;6.93;;;6.00;;
20093;SDS011;10206;48.012;10.030;2023-05-15T00:08:39;6.83;;;5.87;;
20093;SDS011;10206;48.012;10.030;2023-05-15T00:11:05;7.03;;;6.33;;
20093;SDS011;10206;48.012;10.030;2023-05-15T00:13:31;7.83;;;6.70;;
20093;SDS011;10206;48.012;10.030;2023-05-15T00:15:57;8.47;;;6.20;;
20093;SDS011;10206;48.012;10.030;2023-05-15T00:18:23;9.17;;;6.23;;
20093;SDS011;10206;48.012;10.030;2023-05-15T00:20:49;8.67;;;6.90;;
20093;SDS011;10206;48.012;10.030;2023-05-15T00:23:17;8.10;;;7.07;;
20093;SDS011;10206;48.012;10.030;2023-05-15T00:25:43;8.07;;;6.83;;
20093;SDS011;10206;48.012;10.030;2023-05-15T00:28:09;8.97;;;7.03;;
20093;SDS011;10206;48.012;10.030;2023-05-15T00:30:35;8.70;;;6.90;;
20093;SDS011;10206;48.012;10.030;2023-05-15T00:33:01;8.60;;;6.90;;
20093;SDS011;10206;48.012;10.030;2023-05-15T00:35:27;11.30;;;8.50;;
20093;SDS011;10206;48.012;10.030;2023-05-15T00:37:53;9.20;;;7.57;;
20093;SDS011;10206;48.012;10.030;2023-05-15T00:40:20;10.73;;;8.17;;
20093;SDS011;10206;48.012;10.030;2023-05-15T00:42:47;9.80;;;8.17;;
20093;SDS011;10206;48.012;10.030;2023-05-15T00:45:15;11.63;;;9.67;;
20093;SDS011;10206;48.012;10.030;2023-05-15T00:47:41;12.53;;;10.27;;
20093;SDS011;10206;48.012;10.030;2023-05-15T00:50:08;12.23;;;10.30;;
20093;SDS011;10206;48.012;10.030;2023-05-15T00:52:35;13.57;;;10.87;;
20093;SDS011;10206;48.012;10.030;2023-05-15T00:55:02;15.13;;;11.70;;
20093;SDS011;10206;48.012;10.030;2023-05-15T00:57:29;15.00;;;11.60;;
20093;SDS011;10206;48.012;10.030;2023-05-15T00:59:56;15.80;;;11.93;;
20093;SDS011;10206;48.012;10.030;2023-05-15T01:02:25;19.87;;;15.60;;
20093;SDS011;10206;48.012;10.030;2023-05-15T01:04:51;20.33;;;14.87;;
20093;SDS011;10206;48.012;10.030;2023-05-15T01:07:18;19.60;;;14.60;;
20093;SDS011;10206;48.012;10.030;2023-05-15T01:09:44;22.13;;;17.00;;
20093;SDS011;10206;48.012;10.030;2023-05-15T01:12:14;22.43;;;17.07;;
20093;SDS011;10206;48.012;10.030;2023-05-15T01:14:41;23.83;;;16.47;;
20093;SDS011;10206;48.012;10.030;2023-05-15T01:17:07;20.60;;;15.73;;
20093;SDS011;10206;48.012;10.030;2023-05-15T01:19:33;22.13;;;16.57;;
20093;SDS011;10206;48.012;10.030;2023-05-15T01:25:12;18.57;;;14.10;;
20093;SDS011;10206;48.012;10.030;2023-05-15T01:27:56;20.27;;;14.27;;
20093;SDS011;10206;48.012;10.030;2023-05-15T01:30:33;19.03;;;14.53;;
20093;SDS011;10206;48.012;10.030;2023-05-15T01:41:21;17.07;;;13.23;;
20093;SDS011;10206;48.012;10.030;2023-05-15T01:44:37;16.10;;;12.50;;
20093;SDS011;10206;48.012;10.030;2023-05-15T01:46:51;16.43;;;13.13;;
20093;SDS011;10206;48.012;10.030;2023-05-15T01:49:22;15.77;;;12.13;;
20093;SDS011;10206;48.012;10.030;2023-05-15T01:52:02;16.37;;;12.90;;
20093;SDS011;10206;48.012;10.030;2023-05-15T01:54:37;19.37;;;13.37;;
20093;SDS011;10206;48.012;10.030;2023-05-15T01:57:04;17.57;;;12.70;;
20093;SDS011;10206;48.012;10.030;2023-05-15T01:59:32;15.57;;;12.30;;
20093;SDS011;10206;48.012;10.030;2023-05-15T02:02:01;16.13;;;12.33;;
20093;SDS011;10206;48.012;10.030;2023-05-15T02:04:28;16.87;;;13.07;;
20093;SDS011;10206;48.012;10.030;2023-05-15T02:06:56;18.13;;;12.63;;
20093;SDS011;10206;48.012;10.030;2023-05-15T02:09:25;17.87;;;12.40;;
20093;SDS011;10206;48.012;10.030;2023-05-15T02:11:52;16.03;;;12.53;;
20093;SDS011;10206;48.012;10.030;2023-05-15T02:14:19;15.97;;;12.47;;
20093;SDS011;10206;48.012;10.030;2023-05-15T02:16:46;16.67;;;12.80;;
20093;SDS011;10206;48.012;10.030;2023-05-15T02:19:12;15.37;;;12.73;;
20093;SDS011;10206;48.012;10.030;2023-05-15T02:21:38;17.50;;;13.63;;
20093;SDS011;10206;48.012;10.030;2023-05-15T02:24:05;15.60;;;12.43;;
20093;SDS011;10206;48.012;10.030;2023-05-15T02:29:05;15.40;;;12.63;;
20093;SDS011;10206;48.012;10.030;2023-05-15T02:31:51;17.10;;;12.10;;
20093;SDS011;10206;48.012;10.030;2023-05-15T02:37:26;15.87;;;12.40;;
20093;SDS011;10206;48.012;10.030;2023-05-15T02:39:55;17.10;;;13.37;;
20093;SDS011;10206;48.012;10.030;2023-05-15T02:42:23;16.80;;;12.40;;
20093;SDS011;10206;48.012;10.030;2023-05-15T02:44:55;16.00;;;12.73;;
20093;SDS011;10206;48.012;10.030;2023-05-15T02:47:22;15.37;;;12.30;;
20093;SDS011;10206;48.012;10.030;2023-05-15T02:49:49;15.57;;;12.60;;
20093;SDS011;10206;48.012;10.030;2023-05-15T02:52:15;17.03;;;12.37;;
20093;SDS011;10206;48.012;10.030;2023-05-15T02:54:42;16.17;;;11.53;;
20093;SDS011;10206;48.012;10.030;2023-05-15T02:57:08;15.30;;;12.27;;
20093;SDS011;10206;48.012;10.030;2023-05-15T02:59:34;17.33;;;11.40;;
20093;SDS011;10206;48.012;10.030;2023-05-15T03:02:00;14.93;;;11.70;;
20093;SDS011;10206;48.012;10.030;2023-05-15T03:04:27;15.43;;;12.13;;
20093;SDS011;10206;48.012;10.030;2023-05-15T03:06:53;15.43;;;11.50;;
20093;SDS011;10206;48.012;10.030;2023-05-15T03:09:19;12.93;;;10.90;;
20093;SDS011;10206;48.012;10.030;2023-05-15T03:11:46;13.77;;;11.10;;
20093;SDS011;10206;48.012;10.030;2023-05-15T03:14:12;12.93;;;10.17;;
20093;SDS011;10206;48.012;10.030;2023-05-15T03:16:38;17.83;;;11.40;;
20093;SDS011;10206;48.012;10.030;2023-05-15T03:19:04;15.40;;;11.00;;
20093;SDS011;10206;48.012;10.030;2023-05-15T03:21:31;15.03;;;11.50;;
20093;SDS011;10206;48.012;10.030;2023-05-15T03:23:58;15.90;;;10.73;;
20093;SDS011;10206;48.012;10.030;2023-05-15T03:26:25;14.50;;;11.07;;
20093;SDS011;10206;48.012;10.030;2023-05-15T03:28:51;13.80;;;11.60;;
20093;SDS011;10206;48.012;10.030;2023-05-15T03:31:18;15.00;;;11.33;;
20093;SDS011;10206;48.012;10.030;2023-05-15T03:33:44;14.00;;;11.17;;
20093;SDS011;10206;48.012;10.030;2023-05-15T03:36:13;13.80;;;11.00;;
20093;SDS011;10206;48.012;10.030;2023-05-15T03:38:40;14.73;;;11.47;;
20093;SDS011;10206;48.012;10.030;2023-05-15T03:41:08;13.90;;;10.73;;
20093;SDS011;10206;48.012;10.030;2023-05-15T03:43:34;15.63;;;10.93;;
20093;SDS011;10206;48.012;10.030;2023-05-15T03:46:00;14.73;;;11.10;;
20093;SDS011;10206;48.012;10.030;2023-05-15T03:48:26;15.43;;;11.43;;
20093;SDS011;10206;48.012;10.030;2023-05-15T03:50:52;14.70;;;11.80;;
20093;SDS011;10206;48.012;10.030;2023-05-15T03:53:18;14.23;;;11.13;;
20093;SDS011;10206;48.012;10.030;2023-05-15T03:55:44;13.10;;;10.83;;
20093;SDS011;10206;48.012;10.030;2023-05-15T03:58:11;13.60;;;10.00;;
20093;SDS011;10206;48.012;10.030;2023-05-15T04:00:37;14.93;;;10.73;;
20093;SDS011;10206;48.012;10.030;2023-05-15T04:03:03;16.47;;;11.23;;
20093;SDS011;10206;48.012;10.030;2023-05-15T04:05:29;17.00;;;11.90;;
20093;SDS011;10206;48.012;10.030;2023-05-15T04:07:55;14.67;;;11.83;;
20093;SDS011;10206;48.012;10.030;2023-05-15T04:10:21;14.73;;;11.77;;
20093;SDS011;10206;48.012;10.030;2023-05-15T04:12:47;15.63;;;12.43;;
20093;SDS011;10206;48.012;10.030;2023-05-15T04:15:20;14.37;;;11.20;;
20093;SDS011;10206;48.012;10.030;2023-05-15T04:17:49;14.63;;;11.33;;
20093;SDS011;10206;48.012;10.030;2023-05-15T04:20:17;15.10;;;11.23;;
20093;SDS011;10206;48.012;10.030;2023-05-15T04:22:46;16.27;;;11.50;;
20093;SDS011;10206;48.012;10.030;2023-05-15T04:25:12;16.50;;;11.93;;
20093;SDS011;10206;48.012;10.030;2023-05-15T04:27:40;17.57;;;12.50;;
20093;SDS011;10206;48.012;10.030;2023-05-15T04:30:07;17.97;;;13.00;;
20093;SDS011;10206;48.012;10.030;2023-05-15T04:32:35;16.97;;;12.23;;
20093;SDS011;10206;48.012;10.030;2023-05-15T04:35:03;17.10;;;12.80;;
20093;SDS011;10206;48.012;10.030;2023-05-15T04:37:34;15.60;;;12.07;;
20093;SDS011;10206;48.012;10.030;2023-05-15T04:40:00;17.57;;;13.57;;
20093;SDS011;10206;48.012;10.030;2023-05-15T04:42:27;17.27;;;12.97;;
20093;SDS011;10206;48.012;10.030;2023-05-15T04:44:53;20.73;;;13.73;;
20093;SDS011;10206;48.012;10.030;2023-05-15T04:47:19;20.23;;;13.53;;
20093;SDS011;10206;48.012;10.030;2023-05-15T04:49:45;17.63;;;13.13;;
20093;SDS011;10206;48.012;10.030;2023-05-15T04:52:12;19.07;;;13.90;;
20093;SDS011;10206;48.012;10.030;2023-05-15T04:54:38;19.33;;;13.00;;
20093;SDS011;10206;48.012;10.030;2023-05-15T04:57:04;17.67;;;12.67;;
20093;SDS011;10206;48.012;10.030;2023-05-15T04:59:30;15.87;;;12.57;;
20093;SDS011;10206;48.012;10.030;2023-05-15T05:01:56;18.80;;;12.90;;
20093;SDS011;10206;48.012;10.030;2023-05-15T05:04:22;15.07;;;11.63;;
20093;SDS011;10206;48.012;10.030;2023-05-15T05:06:49;17.07;;;12.20;;
20093;SDS011;10206;48.012;10.030;2023-05-15T05:09:17;15.80;;;12.50;;
20093;SDS011;10206;48.012;10.030;2023-05-15T05:11:44;17.00;;;12.20;;
20093;SDS011;10206;48.012;10.030;2023-05-15T05:14:11;13.97;;;11.37;;
20093;SDS011;10206;48.012;10.030;2023-05-15T05:16:38;17.40;;;12.03;;
20093;SDS011;10206;48.012;10.030;2023-05-15T05:19:05;15.23;;;11.23;;
20093;SDS011;10206;48.012;10.030;2023-05-15T05:21:31;17.30;;;11.83;;
20093;SDS011;10206;48.012;10.030;2023-05-15T05:23:57;16.10;;;12.57;;
20093;SDS011;10206;48.012;10.030;2023-05-15T05:26:24;15.60;;;12.07;;
20093;SDS011;10206;48.012;10.030;2023-05-15T05:28:50;14.87;;;11.50;;
20093;SDS011;10206;48.012;10.030;2023-05-15T05:31:17;16.27;;;12.10;;
20093;SDS011;10206;48.012;10.030;2023-05-15T05:33:44;14.60;;;11.57;;
20093;SDS011;10206;48.012;10.030;2023-05-15T05:36:10;16.27;;;12.20;;
20093;SDS011;10206;48.012;10.030;2023-05-15T05:38:36;14.40;;;11.20;;
20093;SDS011;10206;48.012;10.030;2023-05-15T05:41:02;14.73;;;11.37;;
20093;SDS011;10206;48.012;10.030;2023-05-15T05:43:29;17.00;;;12.00;;
20093;SDS011;10206;48.012;10.030;2023-05-15T05:45:55;17.57;;;11.63;;
20093;SDS011;10206;48.012;10.030;2023-05-15T05:48:21;15.17;;;11.33;;
20093;SDS011;10206;48.012;10.030;2023-05-15T05:50:47;14.33;;;11.17;;
20093;SDS011;10206;48.012;10.030;2023-05-15T05:53:13;13.47;;;11.63;;
20093;SDS011;10206;48.012;10.030;2023-05-15T05:55:40;15.30;;;11.13;;
20093;SDS011;10206;48.012;10.030;2023-05-15T05:58:06;15.47;;;12.00;;
20093;SDS011;10206;48.012;10.030;2023-05-15T06:00:32;13.90;;;11.60;;
20093;SDS011;10206;48.012;10.030;2023-05-15T06:02:59;14.40;;;11.20;;
20093;SDS011;10206;48.012;10.030;2023-05-15T06:05:25;15.23;;;11.83;;
20093;SDS011;10206;48.012;10.030;2023-05-15T06:07:51;16.83;;;11.83;;
20093;SDS011;10206;48.012;10.030;2023-05-15T06:10:18;13.17;;;10.90;;
20093;SDS011;10206;48.012;10.030;2023-05-15T06:12:45;13.40;;;10.33;;
20093;SDS011;10206;48.012;10.030;2023-05-15T06:15:12;13.13;;;10.60;;
20093;SDS011;10206;48.012;10.030;2023-05-15T06:17:40;14.57;;;10.83;;
20093;SDS011;10206;48.012;10.030;2023-05-15T06:20:07;14.17;;;10.53;;
20093;SDS011;10206;48.012;10.030;2023-05-15T06:22:34;14.13;;;10.47;;
20093;SDS011;10206;48.012;10.030;2023-05-15T06:25:01;13.20;;;10.73;;
20093;SDS011;10206;48.012;10.030;2023-05-15T06:27:28;12.90;;;10.10;;
20093;SDS011;10206;48.012;10.030;2023-05-15T06:29:55;13.23;;;10.63;;
20093;SDS011;10206;48.012;10.030;2023-05-15T06:32:21;14.50;;;9.90;;
20093;SDS011;10206;48.012;10.030;2023-05-15T06:34:47;12.47;;;9.50;;
20093;SDS011;10206;48.012;10.030;2023-05-15T06:37:13;11.80;;;9.53;;
20093;SDS011;10206;48.012;10.030;2023-05-15T06:39:40;13.37;;;9.80;;
20093;SDS011;10206;48.012;10.030;2023-05-15T06:42:06;10.93;;;9.10;;
20093;SDS011;10206;48.012;10.030;2023-05-15T06:44:32;12.20;;;8.73;;
20093;SDS011;10206;48.012;10.030;2023-05-15T06:46:58;12.07;;;9.20;;
20093;SDS011;10206;48.012;10.030;2023-05-15T06:49:24;12.30;;;9.07;;
20093;SDS011;10206;48.012;10.030;2023-05-15T06:51:51;12.70;;;9.60;;
20093;SDS011;10206;48.012;10.030;2023-05-15T06:54:18;12.23;;;9.90;;
20093;SDS011;10206;48.012;10.030;2023-05-15T06:56:45;13.23;;;10.43;;
20093;SDS011;10206;48.012;10.030;2023-05-15T06:59:11;11.77;;;10.07;;
20093;SDS011;10206;48.012;10.030;2023-05-15T07:01:37;12.00;;;9.53;;
20093;SDS011;10206;48.012;10.030;2023-05-15T07:04:03;14.13;;;10.37;;
20093;SDS011;10206;48.012;10.030;2023-05-15T07:06:30;12.97;;;10.40;;
20093;SDS011;10206;48.012;10.030;2023-05-15T07:08:57;14.00;;;10.60;;
20093;SDS011;10206;48.012;10.030;2023-05-15T07:11:23;11.90;;;10.17;;
20093;SDS011;10206;48.012;10.030;2023-05-15T07:13:50;12.27;;;9.60;;
20093;SDS011;10206;48.012;10.030;2023-05-15T07:16:17;13.87;;;9.87;;
20093;SDS011;10206;48.012;10.030;2023-05-15T07:18:43;12.10;;;10.20;;
20093;SDS011;10206;48.012;10.030;2023-05-15T07:21:09;11.43;;;9.47;;
20093;SDS011;10206;48.012;10.030;2023-05-15T07:23:35;12.93;;;9.30;;
20093;SDS011;10206;48.012;10.030;2023-05-15T07:26:02;10.50;;;8.53;;
20093;SDS011;10206;48.012;10.030;2023-05-15T07:28:28;12.63;;;9.43;;
20093;SDS011;10206;48.012;10.030;2023-05-15T07:30:54;13.20;;;8.83;;
20093;SDS011;10206;48.012;10.030;2023-05-15T07:33:20;14.67;;;9.03;;
20093;SDS011;10206;48.012;10.030;2023-05-15T07:35:46;11.77;;;9.43;;
20093;SDS011;10206;48.012;10.030;2023-05-15T07:38:12;12.77;;;9.37;;
20093;SDS011;10206;48.012;10.030;2023-05-15T07:40:38;10.90;;;8.43;;
20093;SDS011;10206;48.012;10.030;2023-05-15T07:43:04;13.07;;;9.30;;
20093;SDS011;10206;48.012;10.030;2023-05-15T07:45:30;13.27;;;8.90;;
20093;SDS011;10206;48.012;10.030;2023-05-15T07:47:56;10.53;;;8.50;;
20093;SDS011;10206;48.012;10.030;2023-05-15T07:50:22;10.70;;;8.73;;
20093;SDS011;10206;48.012;10.030;2023-05-15T07:52:49;9.73;;;7.93;;
20093;SDS011;10206;48.012;10.030;2023-05-15T07:55:15;11.30;;;7.80;;
20093;SDS011;10206;48.012;10.030;2023-05-15T07:57:41;10.30;;;7.97;;
20093;SDS011;10206;48.012;10.030;2023-05-15T08:00:07;11.50;;;9.00;;
20093;SDS011;10206;48.012;10.030;2023-05-15T08:02:36;17.37;;;14.63;;
20093;SDS011;10206;48.012;10.030;2023-05-15T08:05:03;19.03;;;14.93;;
20093;SDS011;10206;48.012;10.030;2023-05-15T08:07:30;13.10;;;10.43;;
20093;SDS011;10206;48.012;10.030;2023-05-15T08:09:57;11.73;;;9.37;;
20093;SDS011;10206;48.012;10.030;2023-05-15T08:12:24;12.27;;;9.53;;
20093;SDS011;10206;48.012;10.030;2023-05-15T08:14:54;15.43;;;12.83;;
20093;SDS011;10206;48.012;10.030;2023-05-15T08:17:20;13.23;;;9.83;;
20093;SDS011;10206;48.012;10.030;2023-05-15T08:19:47;12.07;;;9.67;;
20093;SDS011;10206;48.012;10.030;2023-05-15T08:22:13;11.03;;;9.10;;
20093;SDS011;10206;48.012;10.030;2023-05-15T08:24:40;10.53;;;8.50;;
20093;SDS011;10206;48.012;10.030;2023-05-15T08:27:06;10.97;;;8.17;;
20093;SDS011;10206;48.012;10.030;2023-05-15T08:29:36;8.83;;;7.60;;
20093;SDS011;10206;48.012;10.030;2023-05-15T08:32:04;8.37;;;7.17;;
20093;SDS011;10206;48.012;10.030;2023-05-15T08:34:30;12.53;;;10.40;;
20093;SDS011;10206;48.012;10.030;2023-05-15T08:36:57;30.33;;;17.33;;
20093;SDS011;10206;48.012;10.030;2023-05-15T08:39:23;43.17;;;24.37;;
20093;SDS011;10206;48.012;10.030;2023-05-15T08:41:52;21.17;;;11.07;;
20093;SDS011;10206;48.012;10.030;2023-05-15T08:44:22;11.83;;;8.90;;
20093;SDS011;10206;48.012;10.030;2023-05-15T08:46:48;51.77;;;24.67;;
20093;SDS011;10206;48.012;10.030;2023-05-15T08:49:26;23.27;;;13.53;;
20093;SDS011;10206;48.012;10.030;2023-05-15T08:52:02;52.87;;;26.77;;
20093;SDS011;10206;48.012;10.030;2023-05-15T08:54:29;11.57;;;7.87;;
20093;SDS011;10206;48.012;10.030;2023-05-15T08:56:56;10.53;;;7.00;;
20093;SDS011;10206;48.012;10.030;2023-05-15T08:59:22;62.13;;;33.13;;
20093;SDS011;10206;48.012;10.030;2023-05-15T09:01:49;34.50;;;18.40;;
20093;SDS011;10206;48.012;10.030;2023-05-15T09:04:15;81.13;;;43.37;;
20093;SDS011;10206;48.012;10.030;2023-05-15T09:06:42;14.67;;;10.70;;
20093;SDS011;10206;48.012;10.030;2023-05-15T09:09:08;9.20;;;7.80;;
20093;SDS011;10206;48.012;10.030;2023-05-15T09:11:38;86.87;;;46.17;;
20093;SDS011;10206;48.012;10.030;2023-05-15T09:14:07;11.37;;;8.83;;
20093;SDS011;10206;48.012;10.030;2023-05-15T09:16:33;13.87;;;9.13;;
20093;SDS011;10206;48.012;10.030;2023-05-15T09:19:00;12.13;;;8.63;;
20093;SDS011;10206;48.012;10.030;2023-05-15T09:21:27;10.77;;;9.13;;
20093;SDS011;10206;48.012;10.030;2023-05-15T09:26:38;9.73;;;8.07;;
20093;SDS011;10206;48.012;10.030;2023-05-15T09:29:04;7.47;;;6.70;;
20093;SDS011;10206;48.012;10.030;2023-05-15T09:31:30;9.30;;;6.70;;
20093;SDS011;10206;48.012;10.030;2023-05-15T09:33:58;28.40;;;15.93;;
20093;SDS011;10206;48.012;10.030;2023-05-15T09:36:25;8.95;;;8.05;;
20093;SDS011;10206;48.012;10.030;2023-05-15T09:38:56;8.10;;;7.20;;
20093;SDS011;10206;48.012;10.030;2023-05-15T09:41:24;7.72;;;6.93;;
20093;SDS011;10206;48.012;10.030;2023-05-15T09:43:52;7.72;;;6.93;;
20093;SDS011;10206;48.012;10.030;2023-05-15T09:46:20;10.23;;;6.70;;
20093;SDS011;10206;48.012;10.030;2023-05-15T09:48:47;9.13;;;6.75;;
20093;SDS011;10206;48.012;10.030;2023-05-15T09:51:18;8.30;;;6.68;;
20093;SDS011;10206;48.012;10.030;2023-05-15T09:53:47;7.45;;;6.70;;
20093;SDS011;10206;48.012;10.030;2023-05-15T09:56:15;7.70;;;6.45;;
20093;SDS011;10206;48.012;10.030;2023-05-15T09:58:55;7.45;;;6.68;;
20093;SDS011;10206;48.012;10.030;2023-05-15T10:01:22;13.85;;;11.40;;
20093;SDS011;10206;48.012;10.030;2023-05-15T10:03:56;14.07;;;12.10;;
20093;SDS011;10206;48.012;10.030;2023-05-15T10:06:33;10.10;;;7.60;;
20093;SDS011;10206;48.012;10.030;2023-05-15T10:09:01;8.05;;;7.13;;
20093;SDS011;10206;48.012;10.030;2023-05-15T10:11:29;7.13;;;6.20;;
20093;SDS011;10206;48.012;10.030;2023-05-15T10:13:58;8.23;;;6.97;;
20093;SDS011;10206;48.012;10.030;2023-05-15T10:16:24;9.20;;;7.20;;
20093;SDS011;10206;48.012;10.030;2023-05-15T10:18:51;8.23;;;7.20;;
20093;SDS011;10206;48.012;10.030;2023-05-15T10:21:18;9.63;;;7.23;;
20093;SDS011;10206;48.012;10.030;2023-05-15T10:23:46;8.20;;;6.20;;
20093;SDS011;10206;48.012;10.030;2023-05-15T10:26:28;8.27;;;6.90;;
20093;SDS011;10206;48.012;10.030;2023-05-15T10:29:04;7.55;;;6.53;;
20093;SDS011;10206;48.012;10.030;2023-05-15T10:31:31;7.00;;;6.30;;
20093;SDS011;10206;48.012;10.030;2023-05-15T10:33:59;8.05;;;6.35;;
20093;SDS011;10206;48.012;10.030;2023-05-15T10:36:26;6.07;;;5.47;;
20093;SDS011;10206;48.012;10.030;2023-05-15T10:38:53;6.68;;;5.97;;
20093;SDS011;10206;48.012;10.030;2023-05-15T10:41:19;7.38;;;6.15;;
20093;SDS011;10206;48.012;10.030;2023-05-15T10:43:47;7.00;;;5.65;;
20093;SDS011;10206;48.012;10.030;2023-05-15T10:46:15;6.38;;;5.07;;
20093;SDS011;10206;48.012;10.030;2023-05-15T10:48:41;7.90;;;5.32;;
20093;SDS011;10206;48.012;10.030;2023-05-15T10:51:15;7.85;;;5.70;;
20093;SDS011;10206;48.012;10.030;2023-05-15T10:53:43;6.20;;;5.60;;
20093;SDS011;10206;48.012;10.030;2023-05-15T10:56:13;5.82;;;5.22;;
20093;SDS011;10206;48.012;10.030;2023-05-15T10:58:50;5.25;;;4.75;;
20093;SDS011;10206;48.012;10.030;2023-05-15T11:01:31;5.00;;;4.50;;
20093;SDS011;10206;48.012;10.030;2023-05-15T11:06:44;3.78;;;3.47;;
20093;SDS011;10206;48.012;10.030;2023-05-15T11:11:54;4.47;;;2.90;;
20093;SDS011;10206;48.012;10.030;2023-05-15T11:14:24;3.15;;;2.85;;
20093;SDS011;10206;48.012;10.030;2023-05-15T11:19:21;4.30;;;3.88;;
20093;SDS011;10206;48.012;10.030;2023-05-15T11:21:52;4.13;;;3.72;;
20093;SDS011;10206;48.012;10.030;2023-05-15T11:24:31;3.92;;;3.63;;
20093;SDS011;10206;48.012;10.030;2023-05-15T11:27:11;4.85;;;3.72;;
20093;SDS011;10206;48.012;10.030;2023-05-15T11:35:08;5.90;;;4.15;;
20093;SDS011;10206;48.012;10.030;2023-05-15T11:38:10;5.95;;;4.63;;
20093;SDS011;10206;48.012;10.030;2023-05-15T11:40:43;4.38;;;3.97;;
20093;SDS011;10206;48.012;10.030;2023-05-15T11:45:50;5.32;;;3.95;;
20093;SDS011;10206;48.012;10.030;2023-05-15T11:48:19;4.57;;;4.07;;
20093;SDS011;10206;48.012;10.030;2023-05-15T11:50:46;4.30;;;3.90;;
20093;SDS011;10206;48.012;10.030;2023-05-15T11:53:13;4.63;;;3.70;;
20093;SDS011;10206;48.012;10.030;2023-05-15T11:55:41;6.40;;;4.05;;
20093;SDS011;10206;48.012;10.030;2023-05-15T11:58:14;5.35;;;3.20;;
20093;SDS011;10206;48.012;10.030;2023-05-15T12:00:43;3.78;;;3.47;;
20093;SDS011;10206;48.012;10.030;2023-05-15T12:03:12;3.90;;;3.60;;
20093;SDS011;10206;48.012;10.030;2023-05-15T12:05:40;4.85;;;3.90;;
20093;SDS011;10206;48.012;10.030;2023-05-15T12:08:10;4.03;;;3.70;;
20093;SDS011;10206;48.012;10.030;2023-05-15T12:10:43;3.40;;;3.10;;
20093;SDS011;10206;48.012;10.030;2023-05-15T12:13:10;3.83;;;3.53;;
20093;SDS011;10206;48.012;10.030;2023-05-15T12:15:38;3.67;;;3.38;;
20093;SDS011;10206;48.012;10.030;2023-05-15T12:18:08;7.60;;;6.72;;
20093;SDS011;10206;48.012;10.030;2023-05-15T12:20:35;5.72;;;5.07;;
20093;SDS011;10206;48.012;10.030;2023-05-15T12:23:02;7.80;;;7.05;;
20093;SDS011;10206;48.012;10.030;2023-05-15T12:25:30;8.40;;;6.20;;
20093;SDS011;10206;48.012;10.030;2023-05-15T12:27:57;2.63;;;2.42;;
20093;SDS011;10206;48.012;10.030;2023-05-15T12:30:25;2.15;;;1.95;;
20093;SDS011;10206;48.012;10.030;2023-05-15T12:32:52;10.02;;;6.97;;
20093;SDS011;10206;48.012;10.030;2023-05-15T12:35:18;2.15;;;1.85;;
20093;SDS011;10206;48.012;10.030;2023-05-15T12:37:44;2.63;;;2.15;;
20093;SDS011;10206;48.012;10.030;2023-05-15T12:40:10;6.13;;;3.92;;
20093;SDS011;10206;48.012;10.030;2023-05-15T12:42:41;2.35;;;2.15;;
20093;SDS011;10206;48.012;10.030;2023-05-15T12:45:18;2.40;;;2.20;;
20093;SDS011;10206;48.012;10.030;2023-05-15T12:47:46;1.88;;;1.70;;
20093;SDS011;10206;48.012;10.030;2023-05-15T12:50:17;2.08;;;1.88;;
20093;SDS011;10206;48.012;10.030;2023-05-15T12:55:25;1.70;;;1.60;;
20093;SDS011;10206;48.012;10.030;2023-05-15T12:58:05;1.80;;;1.70;;
20093;SDS011;10206;48.012;10.030;2023-05-15T13:00:36;1.83;;;1.70;;
20093;SDS011;10206;48.012;10.030;2023-05-15T13:03:03;2.13;;;1.95;;
20093;SDS011;10206;48.012;10.030;2023-05-15T13:05:32;2.47;;;2.00;;
20093;SDS011;10206;48.012;10.030;2023-05-15T13:08:00;1.73;;;1.60;;
20093;SDS011;10206;48.012;10.030;2023-05-15T13:10:28;2.70;;;1.90;;
20093;SDS011;10206;48.012;10.030;2023-05-15T13:12:57;1.88;;;1.77;;
20093;SDS011;10206;48.012;10.030;2023-05-15T13:17:59;2.20;;;1.98;;
20093;SDS011;10206;48.012;10.030;2023-05-15T13:20:26;2.10;;;1.90;;
20093;SDS011;10206;48.012;10.030;2023-05-15T13:22:56;2.05;;;1.95;;
20093;SDS011;10206;48.012;10.030;2023-05-15T13:25:22;2.10;;;1.90;;
20093;SDS011;10206;48.012;10.030;2023-05-15T13:27:48;3.47;;;1.75;;
20093;SDS011;10206;48.012;10.030;2023-05-15T13:30:15;2.17;;;1.73;;
20093;SDS011;10206;48.012;10.030;2023-05-15T13:32:42;2.22;;;1.80;;
20093;SDS011;10206;48.012;10.030;2023-05-15T13:35:08;2.10;;;1.75;;
20093;SDS011;10206;48.012;10.030;2023-05-15T13:37:35;2.08;;;1.90;;
20093;SDS011;10206;48.012;10.030;2023-05-15T13:40:02;2.13;;;1.92;;
20093;SDS011;10206;48.012;10.030;2023-05-15T13:42:34;2.03;;;1.83;;
20093;SDS011;10206;48.012;10.030;2023-05-15T13:45:04;1.92;;;1.73;;
20093;SDS011;10206;48.012;10.030;2023-05-15T13:47:35;1.92;;;1.77;;
20093;SDS011;10206;48.012;10.030;2023-05-15T13:50:05;1.60;;;1.50;;
20093;SDS011;10206;48.012;10.030;2023-05-15T13:52:32;1.80;;;1.30;;
20093;SDS011;10206;48.012;10.030;2023-05-15T13:54:58;1.85;;;1.70;;
20093;SDS011;10206;48.012;10.030;2023-05-15T13:57:25;2.15;;;2.00;;
20093;SDS011;10206;48.012;10.030;2023-05-15T13:59:51;1.85;;;1.60;;
20093;SDS011;10206;48.012;10.030;2023-05-15T14:02:17;2.30;;;1.70;;
20093;SDS011;10206;48.012;10.030;2023-05-15T14:04:45;2.90;;;1.70;;
20093;SDS011;10206;48.012;10.030;2023-05-15T14:07:11;2.03;;;1.85;;
20093;SDS011;10206;48.012;10.030;2023-05-15T14:09:37;2.20;;;2.00;;
20093;SDS011;10206;48.012;10.030;2023-05-15T14:12:03;2.25;;;2.00;;
20093;SDS011;10206;48.012;10.030;2023-05-15T14:14:29;2.05;;;1.85;;
20093;SDS011;10206;48.012;10.030;2023-05-15T14:16:55;2.13;;;1.92;;
20093;SDS011;10206;48.012;10.030;2023-05-15T14:19:22;5.70;;;2.15;;
20093;SDS011;10206;48.012;10.030;2023-05-15T14:21:48;2.00;;;1.83;;
20093;SDS011;10206;48.012;10.030;2023-05-15T14:24:14;2.97;;;2.05;;
20093;SDS011;10206;48.012;10.030;2023-05-15T14:26:40;2.47;;;2.28;;
20093;SDS011;10206;48.012;10.030;2023-05-15T14:29:08;2.42;;;2.20;;
20093;SDS011;10206;48.012;10.030;2023-05-15T14:31:34;3.03;;;2.40;;
20093;SDS011;10206;48.012;10.030;2023-05-15T14:34:00;2.13;;;1.92;;
20093;SDS011;10206;48.012;10.030;2023-05-15T14:36:26;3.05;;;2.30;;
20093;SDS011;10206;48.012;10.030;2023-05-15T14:38:52;2.45;;;2.25;;
20093;SDS011;10206;48.012;10.030;2023-05-15T14:41:18;2.60;;;2.40;;
20093;SDS011;10206;48.012;10.030;2023-05-15T14:43:45;2.50;;;2.30;;
20093;SDS011;10206;48.012;10.030;2023-05-15T14:46:11;2.47;;;2.10;;
20093;SDS011;10206;48.012;10.030;2023-05-15T14:48:37;2.65;;;2.45;;
20093;SDS011;10206;48.012;10.030;2023-05-15T14:51:03;2.50;;;2.30;;
20093;SDS011;10206;48.012;10.030;2023-05-15T14:53:30;2.70;;;2.50;;
20093;SDS011;10206;48.012;10.030;2023-05-15T14:55:56;4.13;;;2.20;;
20093;SDS011;10206;48.012;10.030;2023-05-15T14:58:22;2.33;;;2.13;;
20093;SDS011;10206;48.012;10.030;2023-05-15T15:00:49;2.50;;;2.30;;
20093;SDS011;10206;48.012;10.030;2023-05-15T15:03:15;2.40;;;2.20;;
20093;SDS011;10206;48.012;10.030;2023-05-15T15:05:42;2.30;;;2.00;;